Ochopee, Florida
Current Conditions -  °F | °C
As of 8:53 AM on Friday 24 Oct 2014 (Local Time) from KAPF Reporting Station
Clear Clear  
Wind Chill: 72°   Ceiling: Unl
Heat Index: 72°   Visibility: 10mi
Dew Point: 61°   Wind: 10mph
Humidity: 68%   Direction: 40°NE
Pressure: 29.89"   Gusts: NA
Location:  25.9°N, 81.3°W
Report Text: KAPF 241253Z 04009KT 10SM CLR 22/16 A2989 RMK AO2 SLP120 T02220161
Loading
Personal Weather Stations






























Interactive Weather Map
Tropical Storm Tracking
New forecast layout! Learn more

10-Day Weather Forecast

Advertisements
Track Severe Weather on mobile